sensor_id;sensor_type;location;lat;lon;timestamp;temperature;humidity
70368;DHT22;57789;53.868;10.728;2023-06-10T00:00:40;14.20;99.90
70368;DHT22;57789;53.868;10.728;2023-06-10T00:03:07;14.20;99.90
70368;DHT22;57789;53.868;10.728;2023-06-10T00:05:34;14.20;99.90
70368;DHT22;57789;53.868;10.728;2023-06-10T00:08:01;14.20;99.90
70368;DHT22;57789;53.868;10.728;2023-06-10T00:10:36;14.20;99.90
70368;DHT22;57789;53.868;10.728;2023-06-10T00:13:06;14.20;99.90
70368;DHT22;57789;53.868;10.728;2023-06-10T00:15:35;14.10;99.90
70368;DHT22;57789;53.868;10.728;2023-06-10T00:18:01;14.10;99.90
70368;DHT22;57789;53.868;10.728;2023-06-10T00:20:27;14.10;99.90
70368;DHT22;57789;53.868;10.728;2023-06-10T00:22:53;14.00;99.90
70368;DHT22;57789;53.868;10.728;2023-06-10T00:25:19;14.00;99.90
70368;DHT22;57789;53.868;10.728;2023-06-10T00:27:45;14.00;99.90
70368;DHT22;57789;53.868;10.728;2023-06-10T00:30:14;14.00;99.90
70368;DHT22;57789;53.868;10.728;2023-06-10T00:32:40;14.00;99.90
70368;DHT22;57789;53.868;10.728;2023-06-10T00:35:07;13.90;99.90
70368;DHT22;57789;53.868;10.728;2023-06-10T00:37:33;13.90;99.90
70368;DHT22;57789;53.868;10.728;2023-06-10T00:40:03;13.90;99.90
70368;DHT22;57789;53.868;10.728;2023-06-10T00:42:33;13.90;99.90
70368;DHT22;57789;53.868;10.728;2023-06-10T00:44:58;13.90;99.90
70368;DHT22;57789;53.868;10.728;2023-06-10T00:47:25;13.90;99.90
70368;DHT22;57789;53.868;10.728;2023-06-10T00:49:51;13.90;99.90
70368;DHT22;57789;53.868;10.728;2023-06-10T00:52:18;14.00;99.90
70368;DHT22;57789;53.868;10.728;2023-06-10T00:54:47;13.90;99.90
70368;DHT22;57789;53.868;10.728;2023-06-10T00:57:13;13.90;99.90
70368;DHT22;57789;53.868;10.728;2023-06-10T00:59:47;13.90;99.90
70368;DHT22;57789;53.868;10.728;2023-06-10T01:02:16;13.90;99.90
70368;DHT22;57789;53.868;10.728;2023-06-10T01:04:45;13.90;99.90
70368;DHT22;57789;53.868;10.728;2023-06-10T01:07:25;13.80;99.90
70368;DHT22;57789;53.868;10.728;2023-06-10T01:10:02;13.80;99.90
70368;DHT22;57789;53.868;10.728;2023-06-10T01:12:46;13.80;99.90
70368;DHT22;57789;53.868;10.728;2023-06-10T01:15:17;13.80;99.90
70368;DHT22;57789;53.868;10.728;2023-06-10T01:18:00;13.80;99.90
70368;DHT22;57789;53.868;10.728;2023-06-10T01:20:28;13.80;99.90
70368;DHT22;57789;53.868;10.728;2023-06-10T01:22:55;13.80;99.90
70368;DHT22;57789;53.868;10.728;2023-06-10T01:25:24;13.80;99.90
70368;DHT22;57789;53.868;10.728;2023-06-10T01:33:35;13.70;99.90
70368;DHT22;57789;53.868;10.728;2023-06-10T01:36:04;13.80;99.90
70368;DHT22;57789;53.868;10.728;2023-06-10T01:38:36;13.80;99.90
70368;DHT22;57789;53.868;10.728;2023-06-10T01:41:03;13.70;99.90
70368;DHT22;57789;53.868;10.728;2023-06-10T01:43:33;13.70;99.90
70368;DHT22;57789;53.868;10.728;2023-06-10T01:46:00;13.80;99.90
70368;DHT22;57789;53.868;10.728;2023-06-10T01:48:26;13.80;99.90
70368;DHT22;57789;53.868;10.728;2023-06-10T01:50:52;13.80;99.90
70368;DHT22;57789;53.868;10.728;2023-06-10T01:53:18;13.80;99.90
70368;DHT22;57789;53.868;10.728;2023-06-10T01:55:44;13.80;99.90
70368;DHT22;57789;53.868;10.728;2023-06-10T01:58:10;13.70;99.90
70368;DHT22;57789;53.868;10.728;2023-06-10T02:00:36;13.80;99.90
70368;DHT22;57789;53.868;10.728;2023-06-10T02:03:04;13.80;99.90
70368;DHT22;57789;53.868;10.728;2023-06-10T02:05:32;13.80;99.90
70368;DHT22;57789;53.868;10.728;2023-06-10T02:07:58;13.70;99.90
70368;DHT22;57789;53.868;10.728;2023-06-10T02:10:24;13.70;99.90
70368;DHT22;57789;53.868;10.728;2023-06-10T02:12:50;13.80;99.90
70368;DHT22;57789;53.868;10.728;2023-06-10T02:15:16;13.70;99.90
70368;DHT22;57789;53.868;10.728;2023-06-10T02:17:44;13.70;99.90
70368;DHT22;57789;53.868;10.728;2023-06-10T02:20:11;13.70;99.90
70368;DHT22;57789;53.868;10.728;2023-06-10T02:22:37;13.70;99.90
70368;DHT22;57789;53.868;10.728;2023-06-10T02:25:04;13.70;99.90
70368;DHT22;57789;53.868;10.728;2023-06-10T02:27:30;13.60;99.90
70368;DHT22;57789;53.868;10.728;2023-06-10T02:29:57;13.60;99.90
70368;DHT22;57789;53.868;10.728;2023-06-10T02:32:23;13.60;99.90
70368;DHT22;57789;53.868;10.728;2023-06-10T02:34:49;13.60;99.90
70368;DHT22;57789;53.868;10.728;2023-06-10T02:37:16;13.60;99.90
70368;DHT22;57789;53.868;10.728;2023-06-10T02:39:41;13.60;99.90
70368;DHT22;57789;53.868;10.728;2023-06-10T02:42:07;13.60;99.90
70368;DHT22;57789;53.868;10.728;2023-06-10T02:44:33;13.60;99.90
70368;DHT22;57789;53.868;10.728;2023-06-10T02:46:59;13.50;99.90
70368;DHT22;57789;53.868;10.728;2023-06-10T02:49:25;13.50;99.90
70368;DHT22;57789;53.868;10.728;2023-06-10T02:51:54;13.50;99.90
70368;DHT22;57789;53.868;10.728;2023-06-10T02:54:24;13.50;99.90
70368;DHT22;57789;53.868;10.728;2023-06-10T02:56:52;13.50;99.90
70368;DHT22;57789;53.868;10.728;2023-06-10T02:59:18;13.50;99.90
70368;DHT22;57789;53.868;10.728;2023-06-10T03:01:47;13.50;99.90
70368;DHT22;57789;53.868;10.728;2023-06-10T03:04:15;13.50;99.90
70368;DHT22;57789;53.868;10.728;2023-06-10T03:06:41;13.50;99.90
70368;DHT22;57789;53.868;10.728;2023-06-10T03:09:08;13.40;99.90
70368;DHT22;57789;53.868;10.728;2023-06-10T03:11:34;13.40;99.90
70368;DHT22;57789;53.868;10.728;2023-06-10T03:13:59;13.40;99.90
70368;DHT22;57789;53.868;10.728;2023-06-10T03:16:25;13.50;99.90
70368;DHT22;57789;53.868;10.728;2023-06-10T03:18:53;13.50;99.90
70368;DHT22;57789;53.868;10.728;2023-06-10T03:21:19;13.50;99.90
70368;DHT22;57789;53.868;10.728;2023-06-10T03:23:45;13.50;99.90
70368;DHT22;57789;53.868;10.728;2023-06-10T03:26:11;13.60;99.90
70368;DHT22;57789;53.868;10.728;2023-06-10T03:28:38;13.60;99.90
70368;DHT22;57789;53.868;10.728;2023-06-10T03:31:03;13.70;99.90
70368;DHT22;57789;53.868;10.728;2023-06-10T03:33:29;13.80;99.90
70368;DHT22;57789;53.868;10.728;2023-06-10T03:35:55;13.80;99.90
70368;DHT22;57789;53.868;10.728;2023-06-10T03:38:21;13.90;99.90
70368;DHT22;57789;53.868;10.728;2023-06-10T03:40:47;14.00;99.90
70368;DHT22;57789;53.868;10.728;2023-06-10T03:43:13;14.10;99.90
70368;DHT22;57789;53.868;10.728;2023-06-10T03:45:38;14.20;99.90
70368;DHT22;57789;53.868;10.728;2023-06-10T03:48:05;14.30;99.90
70368;DHT22;57789;53.868;10.728;2023-06-10T03:50:31;14.30;99.90
70368;DHT22;57789;53.868;10.728;2023-06-10T03:52:57;14.40;99.90
70368;DHT22;57789;53.868;10.728;2023-06-10T03:55:26;14.40;99.90
70368;DHT22;57789;53.868;10.728;2023-06-10T03:57:52;14.40;99.90
70368;DHT22;57789;53.868;10.728;2023-06-10T04:00:18;14.50;99.90
70368;DHT22;57789;53.868;10.728;2023-06-10T04:02:47;14.50;99.90
70368;DHT22;57789;53.868;10.728;2023-06-10T04:05:19;14.50;99.90
70368;DHT22;57789;53.868;10.728;2023-06-10T04:07:47;14.60;99.90
70368;DHT22;57789;53.868;10.728;2023-06-10T04:10:14;14.60;99.90
70368;DHT22;57789;53.868;10.728;2023-06-10T04:12:42;14.60;99.90
70368;DHT22;57789;53.868;10.728;2023-06-10T04:15:11;14.70;99.90
70368;DHT22;57789;53.868;10.728;2023-06-10T04:18:05;14.70;99.90
70368;DHT22;57789;53.868;10.728;2023-06-10T04:20:31;14.70;99.90
70368;DHT22;57789;53.868;10.728;2023-06-10T04:22:56;14.80;99.90
70368;DHT22;57789;53.868;10.728;2023-06-10T04:25:24;14.80;99.90
70368;DHT22;57789;53.868;10.728;2023-06-10T04:27:57;14.80;99.90
70368;DHT22;57789;53.868;10.728;2023-06-10T04:30:23;14.90;99.90
70368;DHT22;57789;53.868;10.728;2023-06-10T04:32:48;14.90;99.90
70368;DHT22;57789;53.868;10.728;2023-06-10T04:35:15;15.00;99.90
70368;DHT22;57789;53.868;10.728;2023-06-10T04:37:44;15.10;99.90
70368;DHT22;57789;53.868;10.728;2023-06-10T04:40:10;15.10;99.90
70368;DHT22;57789;53.868;10.728;2023-06-10T04:42:36;15.10;99.90
70368;DHT22;57789;53.868;10.728;2023-06-10T04:45:02;15.20;99.90
70368;DHT22;57789;53.868;10.728;2023-06-10T04:47:30;15.30;99.90
70368;DHT22;57789;53.868;10.728;2023-06-10T04:50:02;15.20;99.90
70368;DHT22;57789;53.868;10.728;2023-06-10T04:52:28;15.30;99.90
70368;DHT22;57789;53.868;10.728;2023-06-10T04:54:54;15.40;99.90
70368;DHT22;57789;53.868;10.728;2023-06-10T04:57:21;15.50;99.90
70368;DHT22;57789;53.868;10.728;2023-06-10T04:59:47;15.40;99.90
70368;DHT22;57789;53.868;10.728;2023-06-10T05:02:14;15.50;99.90
70368;DHT22;57789;53.868;10.728;2023-06-10T05:04:40;15.60;99.90
70368;DHT22;57789;53.868;10.728;2023-06-10T05:07:05;15.60;99.90
70368;DHT22;57789;53.868;10.728;2023-06-10T05:09:34;15.60;99.90
70368;DHT22;57789;53.868;10.728;2023-06-10T05:12:00;15.70;99.90
70368;DHT22;57789;53.868;10.728;2023-06-10T05:14:29;15.70;99.90
70368;DHT22;57789;53.868;10.728;2023-06-10T05:16:54;15.70;99.90
70368;DHT22;57789;53.868;10.728;2023-06-10T05:19:20;15.70;99.90
70368;DHT22;57789;53.868;10.728;2023-06-10T05:21:49;15.80;99.90
70368;DHT22;57789;53.868;10.728;2023-06-10T05:24:15;15.90;99.90
70368;DHT22;57789;53.868;10.728;2023-06-10T05:26:40;15.90;99.90
70368;DHT22;57789;53.868;10.728;2023-06-10T05:29:08;16.00;99.90
70368;DHT22;57789;53.868;10.728;2023-06-10T05:31:37;16.10;99.90
70368;DHT22;57789;53.868;10.728;2023-06-10T05:34:02;16.10;99.90
70368;DHT22;57789;53.868;10.728;2023-06-10T05:36:28;16.10;99.90
70368;DHT22;57789;53.868;10.728;2023-06-10T05:38:54;16.20;99.90
70368;DHT22;57789;53.868;10.728;2023-06-10T05:41:20;16.30;99.90
70368;DHT22;57789;53.868;10.728;2023-06-10T05:43:47;16.30;99.90
70368;DHT22;57789;53.868;10.728;2023-06-10T05:46:14;16.30;99.90
70368;DHT22;57789;53.868;10.728;2023-06-10T05:48:40;16.40;99.90
70368;DHT22;57789;53.868;10.728;2023-06-10T05:51:06;16.50;99.90
70368;DHT22;57789;53.868;10.728;2023-06-10T05:53:34;16.60;99.90
70368;DHT22;57789;53.868;10.728;2023-06-10T05:56:00;16.60;99.90
70368;DHT22;57789;53.868;10.728;2023-06-10T05:58:26;16.70;99.90
70368;DHT22;57789;53.868;10.728;2023-06-10T06:00:52;16.70;99.90
70368;DHT22;57789;53.868;10.728;2023-06-10T06:03:17;16.70;99.90
70368;DHT22;57789;53.868;10.728;2023-06-10T06:05:44;16.60;99.90
70368;DHT22;57789;53.868;10.728;2023-06-10T06:08:11;16.70;99.90
70368;DHT22;57789;53.868;10.728;2023-06-10T06:10:39;16.70;99.90
70368;DHT22;57789;53.868;10.728;2023-06-10T06:13:06;16.70;99.90
70368;DHT22;57789;53.868;10.728;2023-06-10T06:15:34;16.70;99.90
70368;DHT22;57789;53.868;10.728;2023-06-10T06:18:00;16.80;99.90
70368;DHT22;57789;53.868;10.728;2023-06-10T06:20:26;16.80;99.90
70368;DHT22;57789;53.868;10.728;2023-06-10T06:22:52;17.00;99.90
70368;DHT22;57789;53.868;10.728;2023-06-10T06:25:17;17.00;99.90
70368;DHT22;57789;53.868;10.728;2023-06-10T06:27:43;17.00;99.90
70368;DHT22;57789;53.868;10.728;2023-06-10T06:30:09;17.10;99.90
70368;DHT22;57789;53.868;10.728;2023-06-10T06:32:35;17.20;99.90
70368;DHT22;57789;53.868;10.728;2023-06-10T06:35:04;17.20;99.90
70368;DHT22;57789;53.868;10.728;2023-06-10T06:37:33;17.30;99.90
70368;DHT22;57789;53.868;10.728;2023-06-10T06:39:59;17.20;99.90
70368;DHT22;57789;53.868;10.728;2023-06-10T06:42:34;17.30;99.90
70368;DHT22;57789;53.868;10.728;2023-06-10T06:44:59;17.30;99.90
70368;DHT22;57789;53.868;10.728;2023-06-10T06:47:25;17.40;99.90
70368;DHT22;57789;53.868;10.728;2023-06-10T06:49:54;17.40;99.90
70368;DHT22;57789;53.868;10.728;2023-06-10T06:52:20;17.40;99.90
70368;DHT22;57789;53.868;10.728;2023-06-10T06:54:47;17.50;99.90
70368;DHT22;57789;53.868;10.728;2023-06-10T06:57:14;17.50;99.90
70368;DHT22;57789;53.868;10.728;2023-06-10T06:59:40;17.40;99.90
70368;DHT22;57789;53.868;10.728;2023-06-10T07:02:06;17.50;99.90
70368;DHT22;57789;53.868;10.728;2023-06-10T07:04:32;17.50;99.90
70368;DHT22;57789;53.868;10.728;2023-06-10T07:07:40;17.60;99.90
70368;DHT22;57789;53.868;10.728;2023-06-10T07:10:11;17.70;99.90
70368;DHT22;57789;53.868;10.728;2023-06-10T07:12:37;17.80;99.90
70368;DHT22;57789;53.868;10.728;2023-06-10T07:15:03;17.90;99.90
70368;DHT22;57789;53.868;10.728;2023-06-10T07:17:29;17.90;99.90
70368;DHT22;57789;53.868;10.728;2023-06-10T07:19:56;18.00;99.90
70368;DHT22;57789;53.868;10.728;2023-06-10T07:22:25;18.00;99.90
70368;DHT22;57789;53.868;10.728;2023-06-10T07:24:51;18.10;99.90
70368;DHT22;57789;53.868;10.728;2023-06-10T07:27:18;18.10;99.90
70368;DHT22;57789;53.868;10.728;2023-06-10T07:29:43;18.10;99.90
70368;DHT22;57789;53.868;10.728;2023-06-10T07:32:09;18.20;99.90
70368;DHT22;57789;53.868;10.728;2023-06-10T07:34:35;18.20;99.90
70368;DHT22;57789;53.868;10.728;2023-06-10T07:37:01;18.30;99.90
70368;DHT22;57789;53.868;10.728;2023-06-10T07:39:27;18.40;99.90
70368;DHT22;57789;53.868;10.728;2023-06-10T07:41:55;18.40;99.90
70368;DHT22;57789;53.868;10.728;2023-06-10T07:44:25;18.30;99.90
70368;DHT22;57789;53.868;10.728;2023-06-10T07:46:51;18.40;99.90
70368;DHT22;57789;53.868;10.728;2023-06-10T07:49:17;18.50;99.90
70368;DHT22;57789;53.868;10.728;2023-06-10T07:51:44;18.60;99.90
70368;DHT22;57789;53.868;10.728;2023-06-10T07:54:10;18.60;99.90
70368;DHT22;57789;53.868;10.728;2023-06-10T07:56:39;18.60;99.90
70368;DHT22;57789;53.868;10.728;2023-06-10T07:59:37;18.60;99.90
70368;DHT22;57789;53.868;10.728;2023-06-10T08:02:29;18.70;99.90
70368;DHT22;57789;53.868;10.728;2023-06-10T08:04:55;18.70;99.90
70368;DHT22;57789;53.868;10.728;2023-06-10T08:07:24;18.70;99.90
70368;DHT22;57789;53.868;10.728;2023-06-10T08:09:51;18.70;99.90
70368;DHT22;57789;53.868;10.728;2023-06-10T08:12:16;18.70;99.90
70368;DHT22;57789;53.868;10.728;2023-06-10T08:14:45;18.60;99.90
70368;DHT22;57789;53.868;10.728;2023-06-10T08:17:14;18.60;99.90
70368;DHT22;57789;53.868;10.728;2023-06-10T08:19:40;18.70;99.90
70368;DHT22;57789;53.868;10.728;2023-06-10T08:22:06;18.90;99.90
70368;DHT22;57789;53.868;10.728;2023-06-10T08:24:32;18.90;99.90
70368;DHT22;57789;53.868;10.728;2023-06-10T08:26:58;18.90;99.90
70368;DHT22;57789;53.868;10.728;2023-06-10T08:29:26;19.00;99.90
70368;DHT22;57789;53.868;10.728;2023-06-10T08:31:52;19.10;99.90
70368;DHT22;57789;53.868;10.728;2023-06-10T08:34:17;19.00;99.90
70368;DHT22;57789;53.868;10.728;2023-06-10T08:36:46;19.10;99.90
70368;DHT22;57789;53.868;10.728;2023-06-10T08:39:12;19.20;99.90
70368;DHT22;57789;53.868;10.728;2023-06-10T08:41:42;19.20;99.90
70368;DHT22;57789;53.868;10.728;2023-06-10T08:44:29;19.20;99.90
70368;DHT22;57789;53.868;10.728;2023-06-10T08:46:58;19.30;99.90
70368;DHT22;57789;53.868;10.728;2023-06-10T08:49:26;19.30;99.90
70368;DHT22;57789;53.868;10.728;2023-06-10T08:52:00;19.40;99.90
70368;DHT22;57789;53.868;10.728;2023-06-10T08:54:35;19.50;99.90
70368;DHT22;57789;53.868;10.728;2023-06-10T08:57:06;19.60;99.90
70368;DHT22;57789;53.868;10.728;2023-06-10T08:59:32;19.70;99.90
70368;DHT22;57789;53.868;10.728;2023-06-10T09:01:58;19.80;99.90
70368;DHT22;57789;53.868;10.728;2023-06-10T09:04:25;19.80;99.90
70368;DHT22;57789;53.868;10.728;2023-06-10T09:06:54;20.00;99.90
70368;DHT22;57789;53.868;10.728;2023-06-10T09:09:21;20.00;99.90
70368;DHT22;57789;53.868;10.728;2023-06-10T09:11:48;20.20;99.90
70368;DHT22;57789;53.868;10.728;2023-06-10T09:14:14;20.40;99.90
70368;DHT22;57789;53.868;10.728;2023-06-10T09:16:42;20.50;99.90
70368;DHT22;57789;53.868;10.728;2023-06-10T09:19:08;20.60;99.90
70368;DHT22;57789;53.868;10.728;2023-06-10T09:21:36;20.70;99.90
70368;DHT22;57789;53.868;10.728;2023-06-10T09:24:02;20.90;99.90
70368;DHT22;57789;53.868;10.728;2023-06-10T09:26:29;21.20;99.90
70368;DHT22;57789;53.868;10.728;2023-06-10T09:29:15;21.60;99.90
70368;DHT22;57789;53.868;10.728;2023-06-10T09:31:41;21.90;99.90
70368;DHT22;57789;53.868;10.728;2023-06-10T09:36:35;22.30;99.90
70368;DHT22;57789;53.868;10.728;2023-06-10T09:39:04;22.60;99.90
70368;DHT22;57789;53.868;10.728;2023-06-10T09:41:34;22.80;99.90
70368;DHT22;57789;53.868;10.728;2023-06-10T09:44:01;23.00;99.90
70368;DHT22;57789;53.868;10.728;2023-06-10T09:46:31;23.30;99.90
70368;DHT22;57789;53.868;10.728;2023-06-10T09:49:00;23.50;99.90
70368;DHT22;57789;53.868;10.728;2023-06-10T09:51:26;23.30;99.90
70368;DHT22;57789;53.868;10.728;2023-06-10T09:53:52;23.40;99.90
70368;DHT22;57789;53.868;10.728;2023-06-10T09:56:19;23.30;99.90
70368;DHT22;57789;53.868;10.728;2023-06-10T09:58:45;23.00;99.90
70368;DHT22;57789;53.868;10.728;2023-06-10T10:01:13;22.80;99.90
70368;DHT22;57789;53.868;10.728;2023-06-10T10:03:47;22.60;99.90
70368;DHT22;57789;53.868;10.728;2023-06-10T10:06:14;22.60;99.90
70368;DHT22;57789;53.868;10.728;2023-06-10T10:08:40;22.50;99.90
70368;DHT22;57789;53.868;10.728;2023-06-10T10:11:06;22.60;99.90
70368;DHT22;57789;53.868;10.728;2023-06-10T10:13:34;22.90;99.90
70368;DHT22;57789;53.868;10.728;2023-06-10T10:16:14;23.00;99.90
70368;DHT22;57789;53.868;10.728;2023-06-10T10:18:45;23.00;99.90
70368;DHT22;57789;53.868;10.728;2023-06-10T10:21:13;23.00;99.90
70368;DHT22;57789;53.868;10.728;2023-06-10T10:23:44;23.00;99.90
70368;DHT22;57789;53.868;10.728;2023-06-10T10:26:17;23.40;99.90
70368;DHT22;57789;53.868;10.728;2023-06-10T10:29:20;23.60;99.90
70368;DHT22;57789;53.868;10.728;2023-06-10T10:31:51;23.90;99.90
70368;DHT22;57789;53.868;10.728;2023-06-10T10:34:32;23.60;99.90
70368;DHT22;57789;53.868;10.728;2023-06-10T10:37:01;23.40;99.90
70368;DHT22;57789;53.868;10.728;2023-06-10T10:39:29;23.40;99.90
70368;DHT22;57789;53.868;10.728;2023-06-10T10:41:56;23.60;99.90
70368;DHT22;57789;53.868;10.728;2023-06-10T10:44:22;23.50;99.90
70368;DHT22;57789;53.868;10.728;2023-06-10T10:46:50;23.40;99.90
70368;DHT22;57789;53.868;10.728;2023-06-10T10:49:17;23.40;99.90
70368;DHT22;57789;53.868;10.728;2023-06-10T10:51:57;23.10;99.90
70368;DHT22;57789;53.868;10.728;2023-06-10T10:54:31;23.00;99.90
70368;DHT22;57789;53.868;10.728;2023-06-10T10:57:11;22.80;99.90
70368;DHT22;57789;53.868;10.728;2023-06-10T10:59:45;22.80;99.90
70368;DHT22;57789;53.868;10.728;2023-06-10T11:02:16;22.90;99.90
70368;DHT22;57789;53.868;10.728;2023-06-10T11:04:47;23.00;99.90
70368;DHT22;57789;53.868;10.728;2023-06-10T11:07:14;23.00;99.90
70368;DHT22;57789;53.868;10.728;2023-06-10T11:10:07;23.20;99.90
70368;DHT22;57789;53.868;10.728;2023-06-10T11:15:18;23.50;99.90
70368;DHT22;57789;53.868;10.728;2023-06-10T11:18:12;23.40;99.90
70368;DHT22;57789;53.868;10.728;2023-06-10T11:20:55;23.20;99.90
70368;DHT22;57789;53.868;10.728;2023-06-10T11:29:03;23.10;99.90
70368;DHT22;57789;53.868;10.728;2023-06-10T11:33:56;23.10;99.90
70368;DHT22;57789;53.868;10.728;2023-06-10T11:36:27;23.20;99.90
70368;DHT22;57789;53.868;10.728;2023-06-10T11:39:01;23.40;99.90
70368;DHT22;57789;53.868;10.728;2023-06-10T11:41:28;23.60;99.90
70368;DHT22;57789;53.868;10.728;2023-06-10T11:44:15;23.60;99.90
70368;DHT22;57789;53.868;10.728;2023-06-10T11:46:50;23.80;99.90
70368;DHT22;57789;53.868;10.728;2023-06-10T11:49:17;23.90;99.90
70368;DHT22;57789;53.868;10.728;2023-06-10T11:51:43;23.90;99.90
70368;DHT22;57789;53.868;10.728;2023-06-10T11:54:15;23.90;99.90
70368;DHT22;57789;53.868;10.728;2023-06-10T11:56:41;24.30;99.90
70368;DHT22;57789;53.868;10.728;2023-06-10T11:59:10;24.20;99.90
70368;DHT22;57789;53.868;10.728;2023-06-10T12:01:38;24.80;99.90
70368;DHT22;57789;53.868;10.728;2023-06-10T12:04:10;25.20;99.90
70368;DHT22;57789;53.868;10.728;2023-06-10T12:06:45;25.60;99.90
70368;DHT22;57789;53.868;10.728;2023-06-10T12:11:44;25.50;99.90
70368;DHT22;57789;53.868;10.728;2023-06-10T12:14:10;26.00;99.90
70368;DHT22;57789;53.868;10.728;2023-06-10T12:16:36;26.20;99.90
70368;DHT22;57789;53.868;10.728;2023-06-10T12:19:03;26.00;99.90
70368;DHT22;57789;53.868;10.728;2023-06-10T12:21:36;26.30;99.90
70368;DHT22;57789;53.868;10.728;2023-06-10T12:24:43;26.60;99.90
70368;DHT22;57789;53.868;10.728;2023-06-10T12:27:13;26.50;99.90
70368;DHT22;57789;53.868;10.728;2023-06-10T12:29:39;27.00;99.90
70368;DHT22;57789;53.868;10.728;2023-06-10T12:32:05;27.10;99.90
70368;DHT22;57789;53.868;10.728;2023-06-10T12:34:37;26.70;99.90
70368;DHT22;57789;53.868;10.728;2023-06-10T12:37:11;26.60;99.90
70368;DHT22;57789;53.868;10.728;2023-06-10T12:39:40;27.00;99.90
70368;DHT22;57789;53.868;10.728;2023-06-10T12:42:08;26.30;99.90
70368;DHT22;57789;53.868;10.728;2023-06-10T12:44:38;26.30;99.90
70368;DHT22;57789;53.868;10.728;2023-06-10T12:47:11;26.20;99.90
70368;DHT22;57789;53.868;10.728;2023-06-10T12:49:40;26.60;99.90
70368;DHT22;57789;53.868;10.728;2023-06-10T12:52:06;27.20;99.90
70368;DHT22;57789;53.868;10.728;2023-06-10T12:54:37;27.40;99.90
70368;DHT22;57789;53.868;10.728;2023-06-10T12:57:04;27.30;99.90
70368;DHT22;57789;53.868;10.728;2023-06-10T12:59:29;28.00;99.90
70368;DHT22;57789;53.868;10.728;2023-06-10T13:01:57;27.70;99.90
70368;DHT22;57789;53.868;10.728;2023-06-10T13:04:23;27.90;99.90
70368;DHT22;57789;53.868;10.728;2023-06-10T13:06:48;28.00;99.90
70368;DHT22;57789;53.868;10.728;2023-06-10T13:09:15;28.60;99.90
70368;DHT22;57789;53.868;10.728;2023-06-10T13:11:45;28.70;99.90
70368;DHT22;57789;53.868;10.728;2023-06-10T13:14:11;28.80;99.90
70368;DHT22;57789;53.868;10.728;2023-06-10T13:16:37;28.80;99.90
70368;DHT22;57789;53.868;10.728;2023-06-10T13:19:04;29.10;99.30
70368;DHT22;57789;53.868;10.728;2023-06-10T13:21:36;28.80;99.20
70368;DHT22;57789;53.868;10.728;2023-06-10T13:26:51;27.90;99.90
70368;DHT22;57789;53.868;10.728;2023-06-10T13:29:17;28.10;99.90
70368;DHT22;57789;53.868;10.728;2023-06-10T13:31:46;28.70;99.90
70368;DHT22;57789;53.868;10.728;2023-06-10T13:34:13;28.90;99.90
70368;DHT22;57789;53.868;10.728;2023-06-10T13:36:39;28.70;99.30
70368;DHT22;57789;53.868;10.728;2023-06-10T13:39:05;28.30;99.30
70368;DHT22;57789;53.868;10.728;2023-06-10T13:41:31;28.40;99.20
70368;DHT22;57789;53.868;10.728;2023-06-10T13:43:56;28.40;99.20
70368;DHT22;57789;53.868;10.728;2023-06-10T13:46:26;28.60;99.60
70368;DHT22;57789;53.868;10.728;2023-06-10T13:48:51;28.40;99.40
70368;DHT22;57789;53.868;10.728;2023-06-10T13:51:17;28.80;99.30
70368;DHT22;57789;53.868;10.728;2023-06-10T13:53:43;29.10;98.10
70368;DHT22;57789;53.868;10.728;2023-06-10T13:56:18;28.80;98.30
70368;DHT22;57789;53.868;10.728;2023-06-10T13:58:53;29.00;97.70
70368;DHT22;57789;53.868;10.728;2023-06-10T14:01:40;29.00;98.00
70368;DHT22;57789;53.868;10.728;2023-06-10T14:04:06;28.90;98.10
70368;DHT22;57789;53.868;10.728;2023-06-10T14:06:33;29.10;97.40
70368;DHT22;57789;53.868;10.728;2023-06-10T14:09:00;28.60;98.10
70368;DHT22;57789;53.868;10.728;2023-06-10T14:11:26;29.00;98.10
70368;DHT22;57789;53.868;10.728;2023-06-10T14:13:51;29.70;96.30
70368;DHT22;57789;53.868;10.728;2023-06-10T14:16:17;29.80;95.90
70368;DHT22;57789;53.868;10.728;2023-06-10T14:18:43;30.00;95.20
70368;DHT22;57789;53.868;10.728;2023-06-10T14:21:09;30.10;94.30
70368;DHT22;57789;53.868;10.728;2023-06-10T14:23:35;29.80;94.20
70368;DHT22;57789;53.868;10.728;2023-06-10T14:26:01;29.60;93.80
70368;DHT22;57789;53.868;10.728;2023-06-10T14:28:29;29.40;94.40
70368;DHT22;57789;53.868;10.728;2023-06-10T14:30:54;28.80;95.30
70368;DHT22;57789;53.868;10.728;2023-06-10T14:33:20;28.50;95.80
70368;DHT22;57789;53.868;10.728;2023-06-10T14:35:46;28.50;96.30
70368;DHT22;57789;53.868;10.728;2023-06-10T14:41:33;28.30;97.00
70368;DHT22;57789;53.868;10.728;2023-06-10T14:43:59;28.20;97.30
70368;DHT22;57789;53.868;10.728;2023-06-10T14:46:25;29.10;96.40
70368;DHT22;57789;53.868;10.728;2023-06-10T14:48:50;29.80;94.50
70368;DHT22;57789;53.868;10.728;2023-06-10T14:51:16;29.60;94.20
70368;DHT22;57789;53.868;10.728;2023-06-10T14:53:42;29.30;94.40
70368;DHT22;57789;53.868;10.728;2023-06-10T14:56:08;28.90;95.00
70368;DHT22;57789;53.868;10.728;2023-06-10T14:58:35;29.20;94.70
70368;DHT22;57789;53.868;10.728;2023-06-10T15:01:01;29.30;94.80
70368;DHT22;57789;53.868;10.728;2023-06-10T15:03:26;29.20;94.70
70368;DHT22;57789;53.868;10.728;2023-06-10T15:05:52;28.80;94.70
70368;DHT22;57789;53.868;10.728;2023-06-10T15:08:38;29.50;94.80
70368;DHT22;57789;53.868;10.728;2023-06-10T15:11:04;29.50;93.90
70368;DHT22;57789;53.868;10.728;2023-06-10T15:13:30;29.10;93.50
70368;DHT22;57789;53.868;10.728;2023-06-10T15:15:56;29.10;94.80
70368;DHT22;57789;53.868;10.728;2023-06-10T15:18:21;29.00;95.10
70368;DHT22;57789;53.868;10.728;2023-06-10T15:20:47;29.10;94.60
70368;DHT22;57789;53.868;10.728;2023-06-10T15:23:13;29.80;93.90
70368;DHT22;57789;53.868;10.728;2023-06-10T15:25:39;30.00;92.80
70368;DHT22;57789;53.868;10.728;2023-06-10T15:28:06;29.70;93.20
70368;DHT22;57789;53.868;10.728;2023-06-10T15:30:32;29.50;93.30
70368;DHT22;57789;53.868;10.728;2023-06-10T15:33:02;29.70;93.50
70368;DHT22;57789;53.868;10.728;2023-06-10T15:35:29;30.00;93.30
70368;DHT22;57789;53.868;10.728;2023-06-10T15:38:07;30.90;91.60
70368;DHT22;57789;53.868;10.728;2023-06-10T15:40:34;31.70;90.20
70368;DHT22;57789;53.868;10.728;2023-06-10T15:43:00;32.40;86.20
70368;DHT22;57789;53.868;10.728;2023-06-10T15:45:26;32.50;83.60
70368;DHT22;57789;53.868;10.728;2023-06-10T15:47:55;32.80;81.80
70368;DHT22;57789;53.868;10.728;2023-06-10T15:50:21;33.10;80.00